EGHI/SOU METAR and TAF weather

Enter ICAO airport designator
Station Type Date Time Source
EGHI METAR 2018/06/25 16:50 UTC NOAA

EGHI 251650Z 22009KT 190V250 CAVOK 23/11 Q1025


Station Type Date Time Source
EGHI Decoded METAR 2018/06/25 16:50 UTC NOAA

Southampton / Weather Centre, United Kingdom (EGHI) 50-54N 001-24W 0M
Jun 25, 2018 - 12:50 PM EDT / 2018.06.25 1650 UTC
Wind: from the SW (220 degrees) at 10 MPH (9 KT) (direction variable):0
Visibility: greater than 7 mile(s):0
Temperature: 73 F (23 C)
Dew Point: 51 F (11 C)
Relative Humidity: 46%
Pressure (altimeter): 30.27 in. Hg (1025 hPa)
ob: EGHI 251650Z 22009KT 190V250 CAVOK 23/11 Q1025
cycle: 17

Station Type Date Time Source
EGHI TAF 2016/03/02 12:00 UTC NOAA

TAF EGHI 021104Z 0212/0221 28015G25KT 9999 SCT020
TEMPO 0212/0221 29020G35KT PROB30
TEMPO 0212/0213 4000 SHRA BKN012CB
TEMPO 0218/0221 BKN014


Example: see airport list